createdAt,value
2023-02-24T00:02:01.227Z,32.17
2023-02-24T00:04:32.156Z,28.13
2023-02-24T00:07:00.619Z,24.57
2023-02-24T00:09:31.287Z,28.60
2023-02-24T00:12:03.432Z,27.13
2023-02-24T00:14:36.590Z,28.40
2023-02-24T00:17:06.103Z,31.20
2023-02-24T00:19:34.269Z,27.17
2023-02-24T00:22:03.794Z,33.23
2023-02-24T00:24:32.659Z,35.87
2023-02-24T00:27:07.474Z,33.03
2023-02-24T00:29:37.471Z,26.77
2023-02-24T00:32:08.245Z,32.37
2023-02-24T00:34:38.167Z,31.73
2023-02-24T00:37:08.045Z,35.00
2023-02-24T00:39:37.304Z,36.43
2023-02-24T00:42:08.055Z,32.97
2023-02-24T00:44:38.768Z,39.63
2023-02-24T00:47:09.025Z,34.97
2023-02-24T00:49:41.935Z,34.10
2023-02-24T00:52:13.488Z,42.27
2023-02-24T00:54:41.979Z,31.53
2023-02-24T00:57:12.066Z,29.13
2023-02-24T00:59:40.917Z,37.23
2023-02-24T01:02:09.075Z,43.27
2023-02-24T01:04:38.562Z,37.80
2023-02-24T01:07:10.737Z,36.80
2023-02-24T01:09:42.149Z,32.40
2023-02-24T01:12:33.638Z,33.67
2023-02-24T01:15:04.907Z,34.93
2023-02-24T01:17:32.893Z,32.23
2023-02-24T01:20:15.988Z,31.23
2023-02-24T01:22:45.607Z,46.20
2023-02-24T01:25:13.924Z,30.10
2023-02-24T01:27:43.472Z,30.43
2023-02-24T01:30:16.213Z,31.57
2023-02-24T01:32:46.628Z,32.90
2023-02-24T01:35:15.383Z,33.60
2023-02-24T01:37:43.424Z,31.17
2023-02-24T01:40:21.674Z,28.83
2023-02-24T01:42:51.891Z,33.17
2023-02-24T01:45:25.021Z,29.70
2023-02-24T01:47:54.390Z,38.27
2023-02-24T01:50:26.093Z,28.07
2023-02-24T01:52:59.068Z,30.80
2023-02-24T01:55:32.255Z,38.57
2023-02-24T01:58:05.870Z,30.23
2023-02-24T02:00:38.264Z,26.70
2023-02-24T02:03:19.430Z,29.70
2023-02-24T02:05:48.524Z,28.53
2023-02-24T02:08:18.656Z,32.13
2023-02-24T02:10:47.704Z,33.40
2023-02-24T02:13:20.953Z,29.67
2023-02-24T02:16:04.581Z,33.17
2023-02-24T02:18:49.132Z,42.80
2023-02-24T02:22:05.661Z,32.90
2023-02-24T02:24:54.708Z,33.00
2023-02-24T02:28:05.009Z,31.00
2023-02-24T02:31:29.258Z,26.43
2023-02-24T02:34:20.541Z,34.50
2023-02-24T02:36:59.515Z,29.00
2023-02-24T02:39:36.587Z,33.60
2023-02-24T02:42:18.232Z,31.60
2023-02-24T02:44:55.971Z,25.13
2023-02-24T02:47:32.821Z,22.20
2023-02-24T02:50:10.161Z,29.23
2023-02-24T02:52:49.007Z,25.80
2023-02-24T02:55:23.915Z,34.70
2023-02-24T02:57:55.465Z,31.47
2023-02-24T03:00:29.224Z,25.57
2023-02-24T03:03:06.095Z,26.43
2023-02-24T03:05:46.493Z,31.60
2023-02-24T03:08:21.211Z,33.20
2023-02-24T03:10:51.540Z,24.07
2023-02-24T03:13:23.092Z,33.37
2023-02-24T03:15:54.670Z,41.47
2023-02-24T03:18:29.601Z,31.43
2023-02-24T03:21:07.692Z,30.00
2023-02-24T03:23:39.295Z,39.07
2023-02-24T03:26:19.007Z,34.17
2023-02-24T03:29:01.320Z,34.07
2023-02-24T03:31:36.129Z,28.33
2023-02-24T03:34:09.141Z,28.23
2023-02-24T03:36:38.613Z,34.40
2023-02-24T03:39:11.329Z,39.60
2023-02-24T03:41:45.489Z,27.33
2023-02-24T03:44:14.686Z,39.33
2023-02-24T03:46:42.957Z,32.70
2023-02-24T03:49:16.613Z,33.67
2023-02-24T03:52:02.412Z,37.40
2023-02-24T03:54:55.162Z,40.23
2023-02-24T03:57:36.548Z,35.83
2023-02-24T04:00:22.672Z,40.20
2023-02-24T04:02:57.276Z,36.23
2023-02-24T04:05:29.898Z,33.83
2023-02-24T04:08:04.308Z,32.70
2023-02-24T04:10:38.522Z,39.83
2023-02-24T04:13:14.652Z,36.57
2023-02-24T04:15:46.199Z,37.90
2023-02-24T04:18:19.586Z,29.03
2023-02-24T04:20:50.996Z,39.87
2023-02-24T04:23:26.691Z,34.83
2023-02-24T04:25:56.994Z,31.17
2023-02-24T04:28:26.677Z,33.57
2023-02-24T04:30:59.546Z,36.40
2023-02-24T04:33:28.699Z,33.53
2023-02-24T04:35:56.701Z,38.43
2023-02-24T04:38:26.434Z,39.40
2023-02-24T04:40:55.286Z,28.67
2023-02-24T04:43:23.240Z,40.87
2023-02-24T04:45:52.537Z,26.50
2023-02-24T04:48:20.498Z,31.50
2023-02-24T04:50:54.936Z,37.77
2023-02-24T04:53:27.002Z,33.63
2023-02-24T04:55:57.090Z,36.50
2023-02-24T04:58:27.983Z,40.03
2023-02-24T05:00:56.719Z,36.27
2023-02-24T05:03:28.350Z,49.40
2023-02-24T05:06:00.031Z,33.97
2023-02-24T05:08:31.067Z,36.67
2023-02-24T05:11:03.773Z,36.17
2023-02-24T05:13:37.505Z,36.80
2023-02-24T05:16:09.381Z,38.93
2023-02-24T05:18:37.944Z,33.23
2023-02-24T05:21:26.468Z,40.87
2023-02-24T05:23:58.129Z,43.90
2023-02-24T05:26:31.923Z,36.90
2023-02-24T05:29:01.858Z,44.00
2023-02-24T05:31:32.006Z,41.43
2023-02-24T05:34:02.899Z,38.93
2023-02-24T05:36:37.581Z,35.63
2023-02-24T05:39:07.420Z,37.60
2023-02-24T05:41:41.665Z,33.23
2023-02-24T05:44:13.313Z,46.60
2023-02-24T05:46:44.875Z,43.83
2023-02-24T05:49:17.471Z,42.13
2023-02-24T05:51:54.671Z,37.60
2023-02-24T05:54:25.928Z,41.50
2023-02-24T05:56:56.889Z,43.00
2023-02-24T05:59:25.514Z,39.33
2023-02-24T06:01:54.076Z,37.60
2023-02-24T06:04:39.129Z,40.53
2023-02-24T06:07:13.407Z,40.10
2023-02-24T06:09:42.949Z,36.57
2023-02-24T06:12:14.445Z,46.27
2023-02-24T06:14:42.619Z,43.70
2023-02-24T06:17:10.721Z,40.30
2023-02-24T06:19:39.650Z,45.03
2023-02-24T06:22:11.646Z,50.30
2023-02-24T06:24:42.695Z,41.90
2023-02-24T06:27:17.558Z,41.73
2023-02-24T06:29:49.804Z,41.43
2023-02-24T06:32:18.875Z,51.93
2023-02-24T06:34:47.172Z,44.93
2023-02-24T06:37:16.853Z,43.83
2023-02-24T06:39:45.163Z,47.93
2023-02-24T06:42:14.889Z,38.67
2023-02-24T06:44:43.298Z,48.63
2023-02-24T06:47:14.588Z,39.10
2023-02-24T06:49:42.912Z,41.80
2023-02-24T06:52:18.194Z,50.90
2023-02-24T06:54:48.673Z,36.97
2023-02-24T06:57:20.290Z,46.50
2023-02-24T06:59:48.833Z,38.70
2023-02-24T07:02:17.608Z,34.60
2023-02-24T07:04:45.848Z,39.37
2023-02-24T07:07:15.023Z,41.67
2023-02-24T07:09:45.284Z,42.33
2023-02-24T07:12:13.600Z,38.47
2023-02-24T07:14:42.914Z,37.30
2023-02-24T07:17:14.554Z,32.60
2023-02-24T07:19:42.553Z,38.23
2023-02-24T07:22:11.015Z,33.90
2023-02-24T07:24:46.036Z,37.70
2023-02-24T07:27:23.070Z,31.23
2023-02-24T07:29:53.894Z,42.03
2023-02-24T07:32:23.354Z,31.03
2023-02-24T07:34:51.503Z,32.80
2023-02-24T07:37:20.511Z,38.07
2023-02-24T07:39:48.577Z,31.00
2023-02-24T07:42:16.632Z,34.23
2023-02-24T07:44:46.296Z,33.23
2023-02-24T07:47:16.365Z,37.33
2023-02-24T07:49:45.822Z,32.57
2023-02-24T07:52:14.206Z,34.03
2023-02-24T07:54:42.223Z,33.60
2023-02-24T07:57:13.566Z,36.43
2023-02-24T07:59:47.878Z,37.50
2023-02-24T08:02:18.324Z,49.40
2023-02-24T08:04:50.078Z,37.83
2023-02-24T08:07:24.016Z,39.07
2023-02-24T08:10:09.616Z,34.30
2023-02-24T08:12:43.306Z,30.43
2023-02-24T08:15:18.056Z,30.60
2023-02-24T08:17:47.784Z,33.00
2023-02-24T08:20:29.717Z,38.10
2023-02-24T08:22:57.934Z,37.80
2023-02-24T08:25:35.454Z,28.20
2023-02-24T08:28:09.018Z,33.80
2023-02-24T08:30:44.897Z,30.37
2023-02-24T08:33:20.864Z,33.87
2023-02-24T08:36:02.822Z,35.30
2023-02-24T08:38:41.922Z,28.80
2023-02-24T08:41:20.234Z,29.33
2023-02-24T08:43:50.280Z,29.40
2023-02-24T08:46:26.152Z,32.33
2023-02-24T08:48:57.867Z,29.70
2023-02-24T08:51:29.667Z,32.73
2023-02-24T08:54:00.262Z,30.40
2023-02-24T08:56:34.354Z,29.33
2023-02-24T08:59:06.276Z,26.10
2023-02-24T09:01:37.119Z,27.67
2023-02-24T09:04:10.398Z,29.20
2023-02-24T09:06:44.776Z,27.17
2023-02-24T09:09:21.032Z,31.27
2023-02-24T09:11:55.765Z,27.17
2023-02-24T09:14:28.462Z,32.23
2023-02-24T09:17:06.032Z,38.53
2023-02-24T09:19:59.074Z,28.07
2023-02-24T09:22:57.064Z,25.60
2023-02-24T09:25:40.320Z,22.40
2023-02-24T09:28:16.873Z,23.37
2023-02-24T09:30:54.275Z,26.70
2023-02-24T09:33:26.352Z,25.47
2023-02-24T09:36:13.409Z,24.73
2023-02-24T09:39:01.624Z,22.73
2023-02-24T09:41:53.413Z,25.10
2023-02-24T09:44:29.843Z,21.40
2023-02-24T09:47:08.882Z,23.83
2023-02-24T09:49:49.050Z,17.73
2023-02-24T09:52:20.160Z,18.63
2023-02-24T09:55:15.468Z,19.13
2023-02-24T09:58:12.833Z,22.77
2023-02-24T10:00:47.065Z,18.40
2023-02-24T10:03:29.996Z,25.83
2023-02-24T10:06:12.233Z,25.13
2023-02-24T10:08:50.549Z,20.93
2023-02-24T10:11:32.722Z,22.83
2023-02-24T10:14:06.324Z,18.83
2023-02-24T10:16:46.297Z,25.63
2023-02-24T10:19:25.932Z,19.50
2023-02-24T10:22:02.865Z,19.50
2023-02-24T10:24:41.192Z,18.43
2023-02-24T10:27:17.178Z,22.13
2023-02-24T10:30:05.592Z,19.37
2023-02-24T10:32:46.966Z,16.73
2023-02-24T10:35:17.583Z,18.27
2023-02-24T10:37:46.366Z,13.80
2023-02-24T10:40:26.440Z,24.20
2023-02-24T10:43:10.359Z,20.07
2023-02-24T10:45:45.105Z,25.93
2023-02-24T10:48:40.354Z,23.60
2023-02-24T10:51:19.681Z,20.10
2023-02-24T10:54:09.918Z,22.83
2023-02-24T10:56:44.763Z,17.20
2023-02-24T10:59:46.727Z,15.40
2023-02-24T11:02:29.818Z,12.83
2023-02-24T11:05:24.978Z,15.40
2023-02-24T11:08:15.688Z,19.53
2023-02-24T11:10:58.668Z,23.47
2023-02-24T11:13:45.812Z,14.10
2023-02-24T11:16:31.317Z,19.80
2023-02-24T11:18:59.488Z,19.77
2023-02-24T11:21:28.839Z,16.87
2023-02-24T11:24:02.728Z,19.50
2023-02-24T11:26:36.859Z,17.03
2023-02-24T11:29:30.520Z,13.30
2023-02-24T11:32:22.793Z,19.20
2023-02-24T11:34:59.486Z,21.43
2023-02-24T11:37:38.235Z,12.70
2023-02-24T11:40:16.284Z,16.13
2023-02-24T11:42:49.277Z,18.70
2023-02-24T11:45:30.329Z,13.27
2023-02-24T11:48:04.088Z,12.00
2023-02-24T11:50:43.615Z,19.37
2023-02-24T11:53:27.423Z,12.50
2023-02-24T11:56:02.927Z,11.77
2023-02-24T11:58:41.337Z,15.70
2023-02-24T12:01:22.366Z,19.33
2023-02-24T12:03:57.926Z,14.63
2023-02-24T12:06:32.096Z,12.60
2023-02-24T12:09:07.754Z,14.23
2023-02-24T12:11:44.409Z,12.47
2023-02-24T12:14:23.409Z,14.17
2023-02-24T12:17:03.300Z,11.67
2023-02-24T12:19:42.258Z,10.20
2023-02-24T12:22:16.615Z,8.17
2023-02-24T12:24:51.446Z,9.10
2023-02-24T12:27:39.393Z,9.97
2023-02-24T12:30:48.600Z,10.20
2023-02-24T12:33:37.413Z,9.27
2023-02-24T12:36:21.541Z,9.43
2023-02-24T12:39:00.754Z,35.97
2023-02-24T12:41:47.172Z,20.60
2023-02-24T12:44:31.106Z,11.97
2023-02-24T12:47:08.007Z,9.80
2023-02-24T12:50:18.290Z,8.10
2023-02-24T12:53:01.661Z,9.17
2023-02-24T12:55:40.387Z,8.67
2023-02-24T12:58:13.561Z,21.27
2023-02-24T13:00:57.765Z,9.97
2023-02-24T13:03:41.037Z,7.90
2023-02-24T13:06:22.088Z,11.90
2023-02-24T13:09:00.911Z,12.70
2023-02-24T13:11:41.819Z,15.73
2023-02-24T13:14:20.549Z,13.60
2023-02-24T13:16:48.645Z,15.33
2023-02-24T13:19:22.347Z,15.70
2023-02-24T13:22:04.972Z,16.20
2023-02-24T13:24:34.246Z,18.17
2023-02-24T13:27:22.204Z,18.40
2023-02-24T13:29:52.483Z,20.03
2023-02-24T13:32:32.511Z,13.17
2023-02-24T13:35:02.663Z,15.57
2023-02-24T13:37:36.244Z,20.43
2023-02-24T13:40:26.494Z,17.77
2023-02-24T13:43:01.235Z,17.30
2023-02-24T13:45:31.009Z,21.77
2023-02-24T13:48:28.541Z,16.13
2023-02-24T13:51:28.954Z,15.80
2023-02-24T13:54:16.360Z,15.27
2023-02-24T13:56:51.163Z,12.03
2023-02-24T13:59:40.517Z,12.60
2023-02-24T14:02:16.589Z,13.83
2023-02-24T14:04:52.617Z,12.13
2023-02-24T14:07:25.224Z,10.03
2023-02-24T14:09:58.982Z,12.60
2023-02-24T14:12:29.996Z,9.67
2023-02-24T14:14:59.180Z,8.30
2023-02-24T14:17:32.084Z,9.23
2023-02-24T14:20:15.752Z,13.27
2023-02-24T14:22:48.785Z,11.90
2023-02-24T14:25:18.378Z,9.87
2023-02-24T14:27:49.932Z,10.83
2023-02-24T14:30:30.709Z,7.87
2023-02-24T14:32:59.415Z,7.70
2023-02-24T14:35:38.488Z,9.70
2023-02-24T14:38:07.014Z,7.00
2023-02-24T14:40:36.424Z,8.00
2023-02-24T14:43:04.659Z,6.30
2023-02-24T14:45:32.993Z,8.50
2023-02-24T14:48:02.266Z,10.73
2023-02-24T14:50:34.536Z,9.97
2023-02-24T14:53:05.961Z,9.97
2023-02-24T14:55:43.353Z,5.73
2023-02-24T14:58:19.390Z,9.23
2023-02-24T15:00:53.401Z,6.87
2023-02-24T15:03:29.313Z,5.10
2023-02-24T15:06:01.476Z,6.23
2023-02-24T15:08:37.829Z,6.03
2023-02-24T15:11:21.308Z,3.73
2023-02-24T15:13:52.681Z,6.60
2023-02-24T15:16:25.361Z,4.03
2023-02-24T15:18:56.332Z,4.63
2023-02-24T15:21:31.107Z,6.90
2023-02-24T15:24:04.787Z,3.50
2023-02-24T15:26:35.900Z,2.90
2023-02-24T15:29:14.268Z,4.80
2023-02-24T15:31:48.349Z,3.80
2023-02-24T15:34:21.317Z,3.27
2023-02-24T15:36:51.205Z,4.00
2023-02-24T15:39:23.473Z,6.20
2023-02-24T15:41:53.977Z,4.70
2023-02-24T15:44:27.442Z,7.87
2023-02-24T15:46:55.951Z,2.40
2023-02-24T15:49:24.019Z,23.40
2023-02-24T15:51:54.477Z,14.80
2023-02-24T15:54:30.421Z,5.83
2023-02-24T15:57:00.917Z,2.50
2023-02-24T15:59:29.905Z,4.77
2023-02-24T16:01:57.997Z,4.83
2023-02-24T16:04:27.431Z,3.80
2023-02-24T16:06:58.513Z,2.20
2023-02-24T16:09:34.955Z,2.10
2023-02-24T16:12:07.557Z,4.87
2023-02-24T16:14:35.971Z,4.30
2023-02-24T16:17:08.805Z,5.13
2023-02-24T16:19:37.237Z,7.57
2023-02-24T16:22:05.288Z,7.03
2023-02-24T16:24:33.257Z,3.53
2023-02-24T16:27:01.327Z,3.37
2023-02-24T16:29:30.880Z,8.53
2023-02-24T16:31:59.117Z,2.37
2023-02-24T16:34:27.437Z,4.50
2023-02-24T16:36:55.509Z,13.60
2023-02-24T16:39:23.776Z,3.53
2023-02-24T16:41:51.789Z,3.77
2023-02-24T16:44:24.091Z,9.90
2023-02-24T16:46:54.969Z,5.43
2023-02-24T16:49:22.969Z,2.17
2023-02-24T16:51:52.861Z,3.13
2023-02-24T16:54:22.564Z,7.03
2023-02-24T16:56:52.287Z,2.77
2023-02-24T16:59:20.284Z,6.83
2023-02-24T17:01:48.483Z,8.40
2023-02-24T17:04:18.096Z,4.40
2023-02-24T17:06:47.399Z,4.83
2023-02-24T17:09:15.608Z,8.03
2023-02-24T17:11:43.885Z,3.43
2023-02-24T17:14:17.424Z,11.50
2023-02-24T17:16:45.694Z,9.50
2023-02-24T17:19:14.233Z,6.13
2023-02-24T17:21:45.964Z,8.33
2023-02-24T17:24:17.138Z,7.43
2023-02-24T17:26:45.452Z,5.80
2023-02-24T17:29:14.984Z,13.63
2023-02-24T17:31:43.217Z,13.77
2023-02-24T17:34:12.348Z,8.73
2023-02-24T17:36:40.483Z,6.03
2023-02-24T17:39:09.981Z,21.27
2023-02-24T17:41:38.425Z,2.80
2023-02-24T17:44:06.442Z,14.70
2023-02-24T17:46:34.481Z,13.90
2023-02-24T17:49:04.898Z,10.27
2023-02-24T17:51:33.307Z,8.87
2023-02-24T17:54:01.342Z,4.07
2023-02-24T17:56:30.885Z,3.60
2023-02-24T17:59:00.914Z,11.47
2023-02-24T18:01:30.389Z,7.10
2023-02-24T18:03:58.606Z,1.90
2023-02-24T18:06:27.201Z,10.87
2023-02-24T18:08:55.485Z,3.73
2023-02-24T18:11:23.483Z,10.87
2023-02-24T18:13:55.097Z,7.50
2023-02-24T18:16:23.671Z,1.87
2023-02-24T18:18:52.390Z,3.00
2023-02-24T18:21:20.398Z,2.57
2023-02-24T18:23:50.083Z,2.30
2023-02-24T18:26:18.429Z,7.93
2023-02-24T18:28:46.461Z,2.30
2023-02-24T18:31:18.543Z,3.00
2023-02-24T18:33:47.236Z,3.23
2023-02-24T18:36:17.886Z,2.33
2023-02-24T18:38:48.144Z,2.30
2023-02-24T18:41:21.756Z,4.73
2023-02-24T18:43:53.443Z,2.57
2023-02-24T18:46:24.714Z,5.07
2023-02-24T18:48:53.499Z,4.50
2023-02-24T18:51:26.073Z,3.80
2023-02-24T18:53:54.686Z,4.90
2023-02-24T18:56:25.764Z,2.10
2023-02-24T18:58:57.283Z,3.50
2023-02-24T19:01:28.565Z,5.03
2023-02-24T19:03:57.185Z,3.53
2023-02-24T19:06:27.116Z,4.47
2023-02-24T19:08:59.856Z,6.57
2023-02-24T19:11:28.182Z,7.70
2023-02-24T19:13:56.502Z,2.63
2023-02-24T19:16:26.206Z,3.73
2023-02-24T19:18:56.625Z,6.40
2023-02-24T19:21:26.094Z,7.20
2023-02-24T19:23:54.204Z,3.10
2023-02-24T19:26:25.368Z,5.43
2023-02-24T19:28:54.160Z,5.10
2023-02-24T19:31:25.421Z,10.23
2023-02-24T19:33:55.811Z,6.60
2023-02-24T19:36:24.955Z,12.07
2023-02-24T19:38:53.221Z,5.60
2023-02-24T19:41:21.329Z,11.40
2023-02-24T19:43:49.339Z,9.60
2023-02-24T19:46:18.158Z,12.03
2023-02-24T19:48:46.903Z,6.63
2023-02-24T19:51:20.391Z,4.23
2023-02-24T19:53:50.122Z,17.33
2023-02-24T19:56:18.102Z,15.60
2023-02-24T19:58:47.754Z,8.37
2023-02-24T20:01:16.008Z,14.83
2023-02-24T20:03:44.558Z,12.70
2023-02-24T20:06:21.627Z,6.17
2023-02-24T20:08:50.131Z,7.80
2023-02-24T20:11:18.726Z,10.20
2023-02-24T20:13:47.179Z,8.30
2023-02-24T20:16:19.026Z,8.73
2023-02-24T20:18:47.775Z,10.73
2023-02-24T20:21:20.251Z,9.63
2023-02-24T20:23:48.261Z,11.30
2023-02-24T20:26:16.561Z,16.13
2023-02-24T20:28:45.255Z,17.93
2023-02-24T20:31:17.045Z,11.10
2023-02-24T20:33:45.468Z,9.17
2023-02-24T20:36:19.435Z,12.43
2023-02-24T20:38:49.662Z,15.47
2023-02-24T20:41:18.258Z,9.30
2023-02-24T20:43:46.272Z,7.17
2023-02-24T20:46:17.510Z,4.03
2023-02-24T20:48:46.329Z,4.90
2023-02-24T20:51:14.386Z,7.37
2023-02-24T20:53:56.170Z,14.07
2023-02-24T20:56:28.927Z,7.90
2023-02-24T20:59:01.208Z,10.50
2023-02-24T21:01:31.811Z,7.00
2023-02-24T21:04:00.387Z,10.83
2023-02-24T21:06:29.615Z,8.00
2023-02-24T21:08:57.938Z,6.67
2023-02-24T21:11:29.703Z,8.30
2023-02-24T21:13:57.830Z,10.63
2023-02-24T21:16:26.919Z,15.73
2023-02-24T21:18:58.632Z,11.23
2023-02-24T21:21:27.103Z,7.13
2023-02-24T21:23:55.779Z,10.60
2023-02-24T21:26:26.668Z,8.00
2023-02-24T21:28:59.210Z,8.10
2023-02-24T21:31:28.614Z,8.80
2023-02-24T21:33:57.466Z,9.93
2023-02-24T21:36:27.850Z,9.90
2023-02-24T21:38:56.603Z,3.77
2023-02-24T21:41:25.184Z,5.60
2023-02-24T21:43:55.515Z,13.50
2023-02-24T21:46:28.205Z,10.03
2023-02-24T21:48:57.916Z,9.00
2023-02-24T21:51:27.753Z,6.70
2023-02-24T21:53:57.019Z,6.17
2023-02-24T21:56:27.390Z,4.73
2023-02-24T21:59:00.155Z,7.70
2023-02-24T22:01:32.680Z,5.13
2023-02-24T22:04:03.746Z,9.77
2023-02-24T22:06:33.630Z,3.60
2023-02-24T22:09:03.222Z,4.10
2023-02-24T22:11:35.114Z,3.67
2023-02-24T22:14:03.652Z,5.53
2023-02-24T22:16:33.256Z,4.40
2023-02-24T22:19:01.453Z,5.93
2023-02-24T22:21:30.900Z,4.13
2023-02-24T22:24:01.865Z,5.97
2023-02-24T22:26:31.845Z,3.53
2023-02-24T22:29:01.431Z,4.80
2023-02-24T22:31:33.447Z,5.47
2023-02-24T22:34:02.292Z,5.83
2023-02-24T22:36:34.156Z,6.30
2023-02-24T22:39:03.179Z,6.30
2023-02-24T22:41:34.843Z,8.53
2023-02-24T22:44:05.716Z,2.23
2023-02-24T22:46:38.334Z,5.43
2023-02-24T22:49:06.831Z,3.27
2023-02-24T22:51:35.019Z,5.70
2023-02-24T22:54:03.573Z,7.70
2023-02-24T22:56:32.472Z,3.40
2023-02-24T22:59:01.625Z,4.13
2023-02-24T23:01:32.371Z,6.27
2023-02-24T23:04:03.013Z,6.33
2023-02-24T23:06:31.850Z,9.20
2023-02-24T23:09:01.559Z,4.90
2023-02-24T23:11:32.167Z,4.77
2023-02-24T23:14:03.779Z,6.70
2023-02-24T23:16:34.547Z,5.70
2023-02-24T23:19:07.311Z,5.77
2023-02-24T23:21:37.846Z,2.57
2023-02-24T23:24:07.940Z,6.63
2023-02-24T23:26:40.476Z,7.93
2023-02-24T23:29:10.177Z,3.27
2023-02-24T23:31:38.733Z,7.90
2023-02-24T23:34:08.677Z,5.17
2023-02-24T23:36:39.294Z,9.73
2023-02-24T23:39:08.892Z,5.47
2023-02-24T23:41:38.337Z,6.33
2023-02-24T23:44:07.338Z,3.77
2023-02-24T23:46:36.782Z,6.20
2023-02-24T23:49:07.535Z,2.90
2023-02-24T23:51:47.510Z,8.17
2023-02-24T23:54:16.305Z,9.53
2023-02-24T23:56:44.266Z,11.03
2023-02-24T23:59:12.316Z,4.27
